Kezdőlap
METAR-TAF:

METAR-TAF

Repülőterek :

Seiyun, Jemen

földrajzi szélesség: 15-58N, földrajzi hosszúság: 048-48E, magasság: 701 m

Jelenlegi meteorológiai megfigyelések

A jelentés 16 órával és 49 perccel ezelõtt készült, 14:00 UTC
Észak-északkeleti szél 14 kt széllökések: 28 kt, északi és kelet-északkeleti között változik
Hőmérséklet 42°C
Páratartalom 7%
Légköri nyomás 1005 hPa
Látótávolság: 8000 m

METAR: OYSY 271400Z 03014G28KT 350V060 8000 NSC 42/M01 Q1005

Idő: 09:49 (06:49 UTC)


TAF: hiányzik

Meteorológiai megfigyelések és előrejelzések több, mint 4000 repülőtéren (METAR és TAF jelentéseket).

A térképen piros és sárga pontok jelzik az elérhető meteorológiai állomásokat.

Mozgassa az egeret a pont fölött, hogy megjelenjen az állomás neve.

Azután kattintson az időjárási megfigyelések és előrejelzések megtekintéséhez.

A térkép megváltoztatása: kattintson a fekete keresztel jelölt zöld gombra ráközelítéshez, a vonallal jelölt zöld gombra távolításhoz, vagy a zöld nyilakra a szomszédos térképek eléréséhez.


METAR-TAF: